Terminal Aerodrome Forecast
Issued by NWS

Home | Current Version | Previous Version | Graphics & Text | Print | Product List | Glossary On
Versions: 1 2 3 4 5 6 7 8 9 10 11 12 13 14 15 16 17
371
FTUS43 KIWX 041133
TAFSBN
TAF
KSBN 041133Z 0412/0512 24010KT P6SM OVC015
     FM041500 27010KT P6SM SCT015 BKN035
     FM041800 26008KT P6SM SCT035
     FM050200 21005KT P6SM BKN050=

USA.gov is the U.S. government's official web portal to all federal, state and local government web resources and services.